»·PEaware :: N703TE L88-L52

N703TE :: L88-L52

FLIGHT INFORMATION

Flight Status: Arrived
Operator: Privately registered:
United States
More flights under this callsign
Pilot: Daniel S. (25371)
Aircraft: CESSNA 172 SKYHAWK
(C172)
More flights by this aircraft type
Origin: L88 New Cuyama
United States
Destination: L52 Oceano Co
United States
More flights between these airports :: More routes between these airports
Route:
File this flight plan on PilotEdge
Remarks:
Altitude:
(Current/Filed)
6,500ft
Speed:
(Current/Filed)
140kts
Departed: 10-Jul-19 05:08 PM
Arrived: 10-Jul-19 05:52 PM
Distance/Time
Traveled:
47nm/0:44
Distance/Time
To Go:
Arrived

Flight Plot

Page will automatically refresh every two minutes.


Map Options




Map Legend


Flown Route
Filed Route
Departure Airport
Arrival Airport
Navaid (VOR, NDB)
Fix

Horizontal Profiles

Position Reports

Time Latitude Longitude Heading Altitude Ground
Speed
10-Jul-19 17:07 35.111977 -120.632781 352 420ft 97kts
10-Jul-19 17:08 35.141497 -120.633183 351 1159ft 108kts
10-Jul-19 17:09 35.172549 -120.628533 16 1612ft 121kts
10-Jul-19 17:10 35.203467 -120.617298 14 1454ft 113kts
10-Jul-19 17:11 35.228398 -120.624917 304 487ft 90kts
10-Jul-19 17:11 35.236963 -120.640499 5 216ft 12kts
10-Jul-19 17:13 35.238735 -120.641286 161 216ft 0kts
10-Jul-19 17:14 35.238735 -120.641286 161 216ft 0kts
10-Jul-19 17:14 35.234427 -120.632963 213 216ft 0kts
10-Jul-19 17:16 35.234427 -120.632963 213 216ft 0kts
10-Jul-19 17:17 35.234427 -120.632963 213 216ft 0kts
10-Jul-19 17:17 35.234427 -120.632963 213 216ft 0kts
10-Jul-19 17:18 35.234427 -120.632963 213 216ft 0kts
10-Jul-19 17:20 35.234427 -120.632963 213 216ft 0kts
10-Jul-19 17:20 35.234427 -120.632963 213 216ft 0kts
10-Jul-19 17:21 35.234427 -120.632963 213 216ft 0kts
10-Jul-19 17:23 35.234427 -120.632963 213 216ft 0kts
10-Jul-19 17:23 35.234427 -120.632963 213 216ft 0kts
10-Jul-19 17:24 35.234427 -120.632963 213 216ft 0kts
10-Jul-19 17:25 35.234427 -120.632963 213 216ft 0kts
10-Jul-19 17:26 35.234427 -120.632963 213 216ft 0kts
10-Jul-19 17:27 35.234427 -120.632963 213 216ft 0kts
10-Jul-19 17:28 35.234427 -120.632963 213 216ft 0kts
10-Jul-19 17:29 35.234427 -120.632963 213 216ft 0kts
10-Jul-19 17:30 35.234427 -120.632963 213 216ft 0kts
10-Jul-19 17:31 35.234427 -120.632963 213 216ft 0kts
10-Jul-19 17:32 35.234427 -120.632963 213 216ft 0kts
10-Jul-19 17:33 35.234427 -120.632963 213 216ft 0kts
10-Jul-19 17:34 35.234427 -120.632963 213 216ft 0kts
10-Jul-19 17:35 35.234427 -120.632963 213 216ft 0kts
10-Jul-19 17:36 35.234427 -120.632963 213 216ft 0kts
10-Jul-19 17:37 35.234427 -120.632963 213 216ft 0kts
10-Jul-19 17:38 35.234427 -120.632963 213 216ft 0kts
10-Jul-19 17:39 35.234269 -120.633685 144 216ft 9kts
10-Jul-19 17:40 35.233122 -120.632388 214 216ft 0kts
10-Jul-19 17:41 35.233471 -120.634296 304 216ft 42kts
10-Jul-19 17:42 35.247241 -120.660248 276 919ft 96kts
10-Jul-19 17:43 35.231745 -120.675996 175 2088ft 80kts
10-Jul-19 17:44 35.206028 -120.669440 164 2495ft 97kts
10-Jul-19 17:45 35.179998 -120.660608 161 2262ft 100kts
10-Jul-19 17:46 35.152911 -120.649938 160 1614ft 111kts
10-Jul-19 17:47 35.123014 -120.637548 164 780ft 108kts
10-Jul-19 17:48 35.098786 -120.626818 138 552ft 85kts
10-Jul-19 17:49 35.090888 -120.604162 35 467ft 77kts
10-Jul-19 17:50 35.100576 -120.620472 302 17ft 43kts
10-Jul-19 17:51 35.102564 -120.623045 207 16ft 0kts
10-Jul-19 17:52 35.102564 -120.623045 207 16ft 0kts
10-Jul-19 17:53 35.102564 -120.623045 207 16ft 0kts
10-Jul-19 17:54 35.102564 -120.623045 207 16ft 0kts
10-Jul-19 17:55 35.102564 -120.623045 207 16ft 0kts
10-Jul-19 17:56 35.102564 -120.623045 207 16ft 0kts
10-Jul-19 17:57 35.102564 -120.623045 207 16ft 0kts
10-Jul-19 17:58 35.102564 -120.623045 207 16ft 0kts
10-Jul-19 17:59 35.102564 -120.623045 207 16ft 0kts
10-Jul-19 18:00 35.102564 -120.623045 207 16ft 0kts
10-Jul-19 18:01 35.102564 -120.623045 207 16ft 0kts
10-Jul-19 18:02 35.102564 -120.623045 207 16ft 0kts
10-Jul-19 18:03 35.102564 -120.623045 207 16ft 0kts
10-Jul-19 18:04 35.102564 -120.623045 207 16ft 0kts
10-Jul-19 18:05 35.102564 -120.623045 207 16ft 0kts

Navigation Log

Ident Type
Flight plan parsing failed, navigation log unavailable